Schedule Details


Flight Number: CTN413
Departure: Frankfurt/main (EDDF) at 12:05
Arrival: Kastela (LDSP) at 13:45
Route: NOMBO UZ738 MUN UM867 VAROB DCT GIMIX DCT SABAD L862 GISER UL862 PALEZ L862 OKLAX

Weather Information
EDDF 251750Z 23005KT 9999 FEW070CB 29/14 Q1018 NOSIG
LDSP 251730Z 05003KT 9999 VCTS FEW040 FEW050CB 29/17 Q1015 TEMPO 05015KT TSRA
Schedule Frequency

Route Map